createdAt,value
2023-01-21T00:00:58.664Z,1010.49
2023-01-21T00:01:58.680Z,1010.55
2023-01-21T00:02:59.452Z,1010.62
2023-01-21T00:03:58.631Z,1010.50
2023-01-21T00:04:58.617Z,1010.54
2023-01-21T00:05:58.578Z,1010.56
2023-01-21T00:06:58.568Z,1010.58
2023-01-21T00:07:59.013Z,1010.57
2023-01-21T00:08:59.570Z,1010.60
2023-01-21T00:09:58.540Z,1010.55
2023-01-21T00:10:58.516Z,1010.57
2023-01-21T00:11:58.505Z,1010.58
2023-01-21T00:12:59.496Z,1010.54
2023-01-21T00:13:58.484Z,1010.60
2023-01-21T00:14:59.491Z,1010.56
2023-01-21T00:15:58.536Z,1010.57
2023-01-21T00:16:59.478Z,1010.54
2023-01-21T00:17:58.449Z,1010.53
2023-01-21T00:18:59.438Z,1010.59
2023-01-21T00:19:58.440Z,1010.56
2023-01-21T00:20:58.424Z,1010.54
2023-01-21T00:21:59.410Z,1010.57
2023-01-21T00:22:58.400Z,1010.60
2023-01-21T00:23:58.389Z,1010.67
2023-01-21T00:24:59.411Z,1010.67
2023-01-21T00:25:58.357Z,1010.66
2023-01-21T00:26:58.372Z,1010.65
2023-01-21T00:27:58.357Z,1010.71
2023-01-21T00:28:58.315Z,1010.78
2023-01-21T00:29:59.322Z,1010.71
2023-01-21T00:30:58.443Z,1010.74
2023-01-21T00:31:58.381Z,1010.80
2023-01-21T00:32:58.357Z,1010.75
2023-01-21T00:33:58.284Z,1010.85
2023-01-21T00:34:58.265Z,1010.79
2023-01-21T00:35:59.240Z,1010.80
2023-01-21T00:36:58.254Z,1010.77
2023-01-21T00:37:58.251Z,1010.79
2023-01-21T00:38:58.246Z,1010.82
2023-01-21T00:39:58.199Z,1010.83
2023-01-21T00:40:58.195Z,1010.89
2023-01-21T00:41:58.193Z,1010.88
2023-01-21T00:42:58.205Z,1010.87
2023-01-21T00:43:58.176Z,1010.83
2023-01-21T00:44:58.160Z,1010.82
2023-01-21T00:45:59.263Z,1010.84
2023-01-21T00:46:58.143Z,1010.87
2023-01-21T00:47:58.178Z,1010.82
2023-01-21T00:48:59.146Z,1010.86
2023-01-21T00:49:58.107Z,1010.85
2023-01-21T00:50:59.194Z,1010.86
2023-01-21T00:51:58.071Z,1010.87
2023-01-21T00:52:58.075Z,1010.86
2023-01-21T00:53:58.154Z,1010.89
2023-01-21T00:54:58.065Z,1010.99
2023-01-21T00:55:58.055Z,1010.97
2023-01-21T00:56:59.034Z,1011.01
2023-01-21T00:57:58.004Z,1011.01
2023-01-21T00:58:57.992Z,1011.01
2023-01-21T00:59:57.991Z,1011.05
2023-01-21T01:00:59.018Z,1011.04
2023-01-21T01:01:58.959Z,1011.07
2023-01-21T01:02:58.006Z,1011.03
2023-01-21T01:03:57.959Z,1011.05
2023-01-21T01:04:58.953Z,1011.11
2023-01-21T01:05:57.925Z,1011.05
2023-01-21T01:06:57.955Z,1011.06
2023-01-21T01:07:57.913Z,1011.01
2023-01-21T01:08:57.899Z,1011.01
2023-01-21T01:09:57.876Z,1011.05
2023-01-21T01:10:57.937Z,1011.06
2023-01-21T01:11:57.925Z,1011.07
2023-01-21T01:12:57.845Z,1011.05
2023-01-21T01:13:57.883Z,1011.11
2023-01-21T01:15:00.736Z,1011.06
2023-01-21T01:15:57.899Z,1011.07
2023-01-21T01:16:58.826Z,1011.03
2023-01-21T01:17:58.817Z,1011.06
2023-01-21T01:18:57.811Z,1011.12
2023-01-21T01:19:57.803Z,1011.06
2023-01-21T01:20:57.817Z,1011.12
2023-01-21T01:21:57.756Z,1011.08
2023-01-21T01:22:57.733Z,1011.11
2023-01-21T01:23:57.777Z,1011.09
2023-01-21T01:24:57.736Z,1011.08
2023-01-21T01:25:58.703Z,1011.10
2023-01-21T01:26:57.725Z,1011.10
2023-01-21T01:27:57.690Z,1011.15
2023-01-21T01:28:57.687Z,1011.18
2023-01-21T01:29:57.693Z,1011.18
2023-01-21T01:30:57.755Z,1011.23
2023-01-21T01:31:57.682Z,1011.24
2023-01-21T01:32:57.665Z,1011.21
2023-01-21T01:33:57.671Z,1011.21
2023-01-21T01:34:57.626Z,1011.21
2023-01-21T01:35:58.617Z,1011.23
2023-01-21T01:36:57.610Z,1011.24
2023-01-21T01:37:57.599Z,1011.22
2023-01-21T01:38:58.575Z,1011.22
2023-01-21T01:39:57.609Z,1011.25
2023-01-21T01:40:57.548Z,1011.28
2023-01-21T01:41:57.563Z,1011.26
2023-01-21T01:42:57.547Z,1011.29
2023-01-21T01:43:57.532Z,1011.24
2023-01-21T01:44:57.574Z,1011.21
2023-01-21T01:45:57.484Z,1011.26
2023-01-21T01:46:57.490Z,1011.22
2023-01-21T01:47:57.468Z,1011.29
2023-01-21T01:48:57.471Z,1011.29
2023-01-21T01:49:57.482Z,1011.26
2023-01-21T01:50:57.504Z,1011.30
2023-01-21T01:51:57.475Z,1011.31
2023-01-21T01:52:58.440Z,1011.28
2023-01-21T01:53:57.420Z,1011.31
2023-01-21T01:54:57.410Z,1011.34
2023-01-21T01:55:57.410Z,1011.26
2023-01-21T01:56:57.413Z,1011.31
2023-01-21T01:57:57.359Z,1011.27
2023-01-21T01:58:57.348Z,1011.27
2023-01-21T01:59:57.394Z,1011.28
2023-01-21T02:00:57.360Z,1011.35
2023-01-21T02:01:57.432Z,1011.37
2023-01-21T02:02:57.422Z,1011.34
2023-01-21T02:03:57.291Z,1011.28
2023-01-21T02:04:57.305Z,1011.35
2023-01-21T02:05:58.325Z,1011.35
2023-01-21T02:06:57.286Z,1011.29
2023-01-21T02:07:57.281Z,1011.35
2023-01-21T02:08:57.295Z,1011.36
2023-01-21T02:09:57.233Z,1011.34
2023-01-21T02:10:57.220Z,1011.38
2023-01-21T02:11:57.251Z,1011.37
2023-01-21T02:12:57.223Z,1011.42
2023-01-21T02:13:57.204Z,1011.41
2023-01-21T02:14:57.189Z,1011.36
2023-01-21T02:15:57.204Z,1011.39
2023-01-21T02:16:57.206Z,1011.42
2023-01-21T02:17:57.240Z,1011.44
2023-01-21T02:18:57.154Z,1011.44
2023-01-21T02:19:58.176Z,1011.43
2023-01-21T02:20:57.109Z,1011.39
2023-01-21T02:21:57.106Z,1011.40
2023-01-21T02:22:57.124Z,1011.40
2023-01-21T02:23:57.101Z,1011.43
2023-01-21T02:24:58.087Z,1011.38
2023-01-21T02:25:57.073Z,1011.50
2023-01-21T02:26:57.082Z,1011.45
2023-01-21T02:27:58.089Z,1011.44
2023-01-21T02:28:57.035Z,1011.45
2023-01-21T02:29:57.015Z,1011.41
2023-01-21T02:30:58.141Z,1011.44
2023-01-21T02:31:57.020Z,1011.47
2023-01-21T02:32:56.999Z,1011.43
2023-01-21T02:33:57.007Z,1011.41
2023-01-21T02:34:57.975Z,1011.37
2023-01-21T02:35:56.952Z,1011.44
2023-01-21T02:36:56.977Z,1011.41
2023-01-21T02:37:56.948Z,1011.43
2023-01-21T02:38:56.932Z,1011.38
2023-01-21T02:39:56.927Z,1011.42
2023-01-21T02:40:56.924Z,1011.37
2023-01-21T02:41:56.903Z,1011.42
2023-01-21T02:42:56.906Z,1011.42
2023-01-21T02:43:57.891Z,1011.50
2023-01-21T02:44:56.902Z,1011.50
2023-01-21T02:45:57.865Z,1011.45
2023-01-21T02:46:56.927Z,1011.48
2023-01-21T02:47:56.834Z,1011.52
2023-01-21T02:48:56.818Z,1011.45
2023-01-21T02:49:56.864Z,1011.49
2023-01-21T02:50:56.834Z,1011.50
2023-01-21T02:51:57.791Z,1011.52
2023-01-21T02:52:56.832Z,1011.51
2023-01-21T02:53:56.771Z,1011.57
2023-01-21T02:54:56.783Z,1011.58
2023-01-21T02:55:56.762Z,1011.57
2023-01-21T02:56:56.757Z,1011.59
2023-01-21T02:57:56.734Z,1011.59
2023-01-21T02:58:56.747Z,1011.66
2023-01-21T02:59:56.698Z,1011.65
2023-01-21T03:00:56.720Z,1011.62
2023-01-21T03:01:56.690Z,1011.72
2023-01-21T03:02:56.662Z,1011.69
2023-01-21T03:03:57.708Z,1011.72
2023-01-21T03:04:56.653Z,1011.68
2023-01-21T03:05:56.643Z,1011.65
2023-01-21T03:06:56.667Z,1011.74
2023-01-21T03:07:56.609Z,1011.71
2023-01-21T03:08:56.604Z,1011.71
2023-01-21T03:09:56.595Z,1011.68
2023-01-21T03:10:56.589Z,1011.76
2023-01-21T03:11:56.627Z,1011.75
2023-01-21T03:12:56.596Z,1011.75
2023-01-21T03:13:56.581Z,1011.70
2023-01-21T03:14:56.542Z,1011.77
2023-01-21T03:15:56.543Z,1011.74
2023-01-21T03:16:56.507Z,1011.75
2023-01-21T03:17:56.522Z,1011.73
2023-01-21T03:18:56.519Z,1011.82
2023-01-21T03:19:56.522Z,1011.85
2023-01-21T03:20:56.470Z,1011.77
2023-01-21T03:21:56.478Z,1011.78
2023-01-21T03:22:56.442Z,1011.82
2023-01-21T03:23:56.455Z,1011.82
2023-01-21T03:24:56.452Z,1011.90
2023-01-21T03:25:56.463Z,1011.91
2023-01-21T03:26:57.441Z,1011.81
2023-01-21T03:27:56.400Z,1011.78
2023-01-21T03:28:56.411Z,1011.82
2023-01-21T03:29:56.384Z,1011.81
2023-01-21T03:30:56.358Z,1011.81
2023-01-21T03:31:56.431Z,1011.82
2023-01-21T03:32:56.412Z,1011.89
2023-01-21T03:33:56.389Z,1011.79
2023-01-21T03:34:57.333Z,1011.82
2023-01-21T03:35:56.335Z,1011.86
2023-01-21T03:36:56.325Z,1011.86
2023-01-21T03:37:56.282Z,1011.87
2023-01-21T03:38:56.270Z,1011.91
2023-01-21T03:39:56.297Z,1011.89
2023-01-21T03:40:56.282Z,1011.93
2023-01-21T03:41:56.261Z,1012.00
2023-01-21T03:42:56.294Z,1011.89
2023-01-21T03:43:56.225Z,1011.90
2023-01-21T03:44:56.219Z,1011.93
2023-01-21T03:45:56.263Z,1011.92
2023-01-21T03:46:56.198Z,1011.88
2023-01-21T03:47:56.205Z,1011.88
2023-01-21T03:48:56.178Z,1011.93
2023-01-21T03:49:56.157Z,1011.94
2023-01-21T03:50:56.192Z,1011.87
2023-01-21T03:51:56.147Z,1011.91
2023-01-21T03:52:56.138Z,1011.88
2023-01-21T03:53:56.135Z,1011.89
2023-01-21T03:54:56.112Z,1011.88
2023-01-21T03:55:56.111Z,1011.86
2023-01-21T03:56:56.087Z,1011.84
2023-01-21T03:57:56.072Z,1011.90
2023-01-21T03:58:56.064Z,1011.87
2023-01-21T03:59:56.057Z,1011.93
2023-01-21T04:00:56.095Z,1011.86
2023-01-21T04:01:56.079Z,1011.86
2023-01-21T04:02:57.026Z,1011.97
2023-01-21T04:03:56.050Z,1012.02
2023-01-21T04:04:56.993Z,1012.01
2023-01-21T04:05:56.000Z,1011.91
2023-01-21T04:06:56.967Z,1011.98
2023-01-21T04:07:55.987Z,1011.98
2023-01-21T04:08:55.962Z,1012.01
2023-01-21T04:09:55.947Z,1011.97
2023-01-21T04:10:55.949Z,1011.96
2023-01-21T04:11:55.937Z,1011.95
2023-01-21T04:12:55.925Z,1012.01
2023-01-21T04:13:55.906Z,1011.99
2023-01-21T04:14:55.893Z,1011.99
2023-01-21T04:15:56.878Z,1011.98
2023-01-21T04:16:55.900Z,1011.92
2023-01-21T04:17:55.853Z,1011.97
2023-01-21T04:18:55.843Z,1011.96
2023-01-21T04:19:55.841Z,1012.02
2023-01-21T04:20:55.845Z,1011.96
2023-01-21T04:21:55.817Z,1012.03
2023-01-21T04:22:55.814Z,1011.95
2023-01-21T04:23:55.782Z,1012.01
2023-01-21T04:24:55.772Z,1012.02
2023-01-21T04:25:55.757Z,1012.06
2023-01-21T04:26:55.811Z,1012.01
2023-01-21T04:27:55.772Z,1012.01
2023-01-21T04:28:55.766Z,1012.03
2023-01-21T04:29:55.733Z,1012.06
2023-01-21T04:30:55.725Z,1012.02
2023-01-21T04:31:55.732Z,1012.03
2023-01-21T04:32:55.805Z,1012.03
2023-01-21T04:33:55.689Z,1012.11
2023-01-21T04:34:55.676Z,1012.07
2023-01-21T04:35:56.661Z,1012.04
2023-01-21T04:36:56.667Z,1012.00
2023-01-21T04:37:55.675Z,1012.05
2023-01-21T04:38:55.659Z,1012.07
2023-01-21T04:39:56.642Z,1012.07
2023-01-21T04:40:55.609Z,1012.12
2023-01-21T04:41:55.633Z,1012.09
2023-01-21T04:42:55.586Z,1012.15
2023-01-21T04:43:55.592Z,1012.20
2023-01-21T04:44:56.575Z,1012.06
2023-01-21T04:45:55.626Z,1012.11
2023-01-21T04:46:55.572Z,1012.22
2023-01-21T04:47:55.522Z,1012.17
2023-01-21T04:48:55.545Z,1012.21
2023-01-21T04:49:55.579Z,1012.25
2023-01-21T04:50:55.513Z,1012.23
2023-01-21T04:51:56.531Z,1012.22
2023-01-21T04:52:55.510Z,1012.27
2023-01-21T04:53:55.499Z,1012.26
2023-01-21T04:54:55.457Z,1012.33
2023-01-21T04:55:55.777Z,1012.24
2023-01-21T04:56:56.452Z,1012.35
2023-01-21T04:57:55.419Z,1012.30
2023-01-21T04:58:55.398Z,1012.37
2023-01-21T04:59:56.438Z,1012.41
2023-01-21T05:00:55.542Z,1012.43
2023-01-21T05:01:55.416Z,1012.50
2023-01-21T05:02:55.379Z,1012.54
2023-01-21T05:03:55.372Z,1012.45
2023-01-21T05:04:55.365Z,1012.49
2023-01-21T05:05:55.330Z,1012.43
2023-01-21T05:06:55.368Z,1012.53
2023-01-21T05:07:56.315Z,1012.55
2023-01-21T05:08:55.305Z,1012.49
2023-01-21T05:09:56.334Z,1012.51
2023-01-21T05:10:55.311Z,1012.55
2023-01-21T05:11:55.293Z,1012.55
2023-01-21T05:12:55.256Z,1012.55
2023-01-21T05:13:55.261Z,1012.65
2023-01-21T05:14:55.240Z,1012.61
2023-01-21T05:15:55.293Z,1012.70
2023-01-21T05:16:55.304Z,1012.66
2023-01-21T05:17:55.209Z,1012.69
2023-01-21T05:18:55.222Z,1012.67
2023-01-21T05:19:55.226Z,1012.68
2023-01-21T05:20:55.202Z,1012.67
2023-01-21T05:21:55.165Z,1012.66
2023-01-21T05:22:55.138Z,1012.63
2023-01-21T05:23:55.148Z,1012.62
2023-01-21T05:24:55.194Z,1012.65
2023-01-21T05:25:55.157Z,1012.66
2023-01-21T05:26:56.104Z,1012.66
2023-01-21T05:27:55.119Z,1012.64
2023-01-21T05:28:55.084Z,1012.65
2023-01-21T05:29:55.080Z,1012.71
2023-01-21T05:30:55.216Z,1012.83
2023-01-21T05:31:55.120Z,1012.71
2023-01-21T05:32:55.049Z,1012.73
2023-01-21T05:33:55.052Z,1012.72
2023-01-21T05:34:55.007Z,1012.72
2023-01-21T05:35:55.060Z,1012.78
2023-01-21T05:36:55.032Z,1012.81
2023-01-21T05:37:54.991Z,1012.79
2023-01-21T05:38:55.979Z,1012.82
2023-01-21T05:39:55.975Z,1012.78
2023-01-21T05:40:54.965Z,1012.81
2023-01-21T05:41:54.943Z,1012.80
2023-01-21T05:42:54.976Z,1012.83
2023-01-21T05:43:54.917Z,1012.77
2023-01-21T05:44:54.927Z,1012.82
2023-01-21T05:45:54.994Z,1012.78
2023-01-21T05:46:54.926Z,1012.80
2023-01-21T05:47:54.878Z,1012.82
2023-01-21T05:48:54.869Z,1012.77
2023-01-21T05:49:54.865Z,1012.78
2023-01-21T05:50:58.196Z,1012.72
2023-01-21T05:51:54.860Z,1012.75
2023-01-21T05:52:54.834Z,1012.71
2023-01-21T05:53:54.823Z,1012.74
2023-01-21T05:55:01.824Z,1012.84
2023-01-21T05:55:55.778Z,1012.69
2023-01-21T05:56:54.810Z,1012.73
2023-01-21T05:57:54.763Z,1012.82
2023-01-21T05:58:55.841Z,1012.80
2023-01-21T05:59:54.754Z,1012.87
2023-01-21T06:00:54.765Z,1012.79
2023-01-21T06:01:54.732Z,1012.82
2023-01-21T06:02:54.737Z,1012.88
2023-01-21T06:03:54.752Z,1012.91
2023-01-21T06:04:54.688Z,1012.92
2023-01-21T06:05:54.702Z,1012.88
2023-01-21T06:06:54.672Z,1012.99
2023-01-21T06:07:55.692Z,1012.92
2023-01-21T06:08:54.661Z,1012.91
2023-01-21T06:09:54.637Z,1012.95
2023-01-21T06:10:54.612Z,1012.95
2023-01-21T06:11:54.622Z,1012.91
2023-01-21T06:12:54.628Z,1012.99
2023-01-21T06:13:54.608Z,1012.91
2023-01-21T06:14:54.598Z,1012.91
2023-01-21T06:15:54.636Z,1012.98
2023-01-21T06:16:54.573Z,1012.95
2023-01-21T06:17:54.566Z,1013.08
2023-01-21T06:18:55.568Z,1012.95
2023-01-21T06:19:54.575Z,1012.89
2023-01-21T06:20:54.585Z,1012.90
2023-01-21T06:21:54.508Z,1012.88
2023-01-21T06:22:55.503Z,1012.92
2023-01-21T06:23:54.506Z,1012.95
2023-01-21T06:24:54.529Z,1012.95
2023-01-21T06:25:54.471Z,1012.92
2023-01-21T06:26:54.445Z,1012.89
2023-01-21T06:27:54.506Z,1012.84
2023-01-21T06:28:54.435Z,1012.83
2023-01-21T06:29:54.450Z,1012.84
2023-01-21T06:30:54.513Z,1012.90
2023-01-21T06:31:55.503Z,1012.82
2023-01-21T06:32:54.438Z,1012.93
2023-01-21T06:33:55.433Z,1012.86
2023-01-21T06:34:54.408Z,1012.87
2023-01-21T06:35:55.411Z,1012.86
2023-01-21T06:36:54.340Z,1012.78
2023-01-21T06:37:54.369Z,1012.85
2023-01-21T06:38:54.375Z,1012.87
2023-01-21T06:39:54.328Z,1012.94
2023-01-21T06:40:54.306Z,1012.79
2023-01-21T06:41:55.403Z,1012.88
2023-01-21T06:42:54.275Z,1012.90
2023-01-21T06:43:54.297Z,1012.87
2023-01-21T06:44:54.253Z,1012.85
2023-01-21T06:45:55.276Z,1012.90
2023-01-21T06:47:01.357Z,1012.92
2023-01-21T06:47:55.242Z,1012.90
2023-01-21T06:48:54.219Z,1012.93
2023-01-21T06:49:54.212Z,1012.93
2023-01-21T06:50:54.336Z,1012.90
2023-01-21T06:51:55.204Z,1012.93
2023-01-21T06:52:54.202Z,1012.92
2023-01-21T06:53:55.272Z,1012.92
2023-01-21T06:54:54.223Z,1012.98
2023-01-21T06:55:54.194Z,1012.91
2023-01-21T06:56:54.189Z,1012.99
2023-01-21T06:57:54.143Z,1012.97
2023-01-21T06:58:54.116Z,1012.95
2023-01-21T06:59:55.146Z,1012.85
2023-01-21T07:00:54.095Z,1012.88
2023-01-21T07:01:55.206Z,1012.85
2023-01-21T07:02:54.185Z,1012.88
2023-01-21T07:03:54.077Z,1012.95
2023-01-21T07:04:54.105Z,1012.93
2023-01-21T07:06:01.694Z,1012.95
2023-01-21T07:06:54.031Z,1012.96
2023-01-21T07:07:54.050Z,1013.02
2023-01-21T07:08:53.997Z,1012.98
2023-01-21T07:09:53.989Z,1013.02
2023-01-21T07:10:54.971Z,1013.02
2023-01-21T07:11:54.966Z,1013.01
2023-01-21T07:12:53.988Z,1013.07
2023-01-21T07:13:53.964Z,1013.05
2023-01-21T07:14:53.944Z,1013.06
2023-01-21T07:15:53.983Z,1013.19
2023-01-21T07:16:53.915Z,1013.14
2023-01-21T07:17:53.913Z,1013.16
2023-01-21T07:18:53.916Z,1013.13
2023-01-21T07:19:53.914Z,1013.16
2023-01-21T07:20:53.860Z,1013.19
2023-01-21T07:21:53.848Z,1013.20
2023-01-21T07:22:53.848Z,1013.19
2023-01-21T07:23:53.824Z,1013.20
2023-01-21T07:24:53.842Z,1013.22
2023-01-21T07:25:53.839Z,1013.18
2023-01-21T07:26:53.807Z,1013.18
2023-01-21T07:27:54.923Z,1013.21
2023-01-21T07:28:53.797Z,1013.18
2023-01-21T07:29:53.765Z,1013.18
2023-01-21T07:30:54.901Z,1013.25
2023-01-21T07:31:53.815Z,1013.17
2023-01-21T07:32:53.727Z,1013.22
2023-01-21T07:33:53.797Z,1013.24
2023-01-21T07:34:54.726Z,1013.21
2023-01-21T07:35:53.730Z,1013.23
2023-01-21T07:36:53.723Z,1013.21
2023-01-21T07:37:53.687Z,1013.22
2023-01-21T07:38:53.679Z,1013.14
2023-01-21T07:39:54.709Z,1013.23
2023-01-21T07:40:54.689Z,1013.24
2023-01-21T07:41:53.646Z,1013.16
2023-01-21T07:42:53.649Z,1013.16
2023-01-21T07:43:53.624Z,1013.12
2023-01-21T07:44:53.628Z,1013.16
2023-01-21T07:45:53.626Z,1013.26
2023-01-21T07:46:53.594Z,1013.10
2023-01-21T07:47:53.607Z,1013.21
2023-01-21T07:48:53.590Z,1013.14
2023-01-21T07:49:53.541Z,1013.10
2023-01-21T07:50:53.587Z,1013.11
2023-01-21T07:51:53.525Z,1013.12
2023-01-21T07:52:53.521Z,1013.11
2023-01-21T07:53:53.524Z,1013.11
2023-01-21T07:54:53.516Z,1013.16
2023-01-21T07:55:53.511Z,1013.18
2023-01-21T07:56:53.492Z,1013.07
2023-01-21T07:57:53.484Z,1013.09
2023-01-21T07:58:53.492Z,1013.05
2023-01-21T07:59:54.426Z,1013.06
2023-01-21T08:00:53.478Z,1013.12
2023-01-21T08:01:54.562Z,1013.15
2023-01-21T08:02:53.522Z,1013.20
2023-01-21T08:03:53.420Z,1013.23
2023-01-21T08:04:53.419Z,1013.17
2023-01-21T08:05:53.391Z,1013.18
2023-01-21T08:06:53.390Z,1013.24
2023-01-21T08:07:54.415Z,1013.19
2023-01-21T08:08:53.345Z,1013.19
2023-01-21T08:09:53.344Z,1013.16
2023-01-21T08:10:53.332Z,1013.22
2023-01-21T08:11:54.328Z,1013.10
2023-01-21T08:12:53.299Z,1013.20
2023-01-21T08:13:53.305Z,1013.20
2023-01-21T08:14:53.283Z,1013.16
2023-01-21T08:15:53.384Z,1013.14
2023-01-21T08:16:53.280Z,1013.11
2023-01-21T08:17:53.290Z,1013.10
2023-01-21T08:18:54.258Z,1013.23
2023-01-21T08:19:53.251Z,1013.24
2023-01-21T08:20:53.226Z,1013.22
2023-01-21T08:21:54.219Z,1013.10
2023-01-21T08:22:54.191Z,1013.22
2023-01-21T08:23:53.200Z,1013.30
2023-01-21T08:24:54.179Z,1013.19
2023-01-21T08:25:53.161Z,1013.13
2023-01-21T08:26:53.167Z,1013.11
2023-01-21T08:27:54.146Z,1013.12
2023-01-21T08:28:54.144Z,1013.10
2023-01-21T08:29:53.146Z,1013.11
2023-01-21T08:30:54.167Z,1013.21
2023-01-21T08:31:53.119Z,1013.25
2023-01-21T08:32:53.114Z,1013.19
2023-01-21T08:33:53.115Z,1013.12
2023-01-21T08:34:53.076Z,1013.16
2023-01-21T08:35:53.061Z,1013.20
2023-01-21T08:36:54.069Z,1013.23
2023-01-21T08:37:53.034Z,1013.29
2023-01-21T08:38:53.026Z,1013.16
2023-01-21T08:39:53.039Z,1013.18
2023-01-21T08:40:53.002Z,1013.22
2023-01-21T08:41:53.004Z,1013.20
2023-01-21T08:42:54.043Z,1013.24
2023-01-21T08:43:52.987Z,1013.22
2023-01-21T08:44:52.967Z,1013.18
2023-01-21T08:45:53.054Z,1013.29
2023-01-21T08:46:52.939Z,1013.26
2023-01-21T08:47:52.935Z,1013.28
2023-01-21T08:48:52.929Z,1013.25
2023-01-21T08:49:52.924Z,1013.28
2023-01-21T08:50:52.933Z,1013.32
2023-01-21T08:51:52.923Z,1013.27
2023-01-21T08:52:53.874Z,1013.34
2023-01-21T08:53:52.855Z,1013.27
2023-01-21T08:54:52.858Z,1013.31
2023-01-21T08:55:52.828Z,1013.24
2023-01-21T08:56:52.821Z,1013.30
2023-01-21T08:57:53.817Z,1013.29
2023-01-21T08:58:52.834Z,1013.29
2023-01-21T08:59:52.842Z,1013.25
2023-01-21T09:00:52.797Z,1013.36
2023-01-21T09:01:52.793Z,1013.31
2023-01-21T09:02:52.747Z,1013.25
2023-01-21T09:03:52.754Z,1013.29
2023-01-21T09:04:53.777Z,1013.30
2023-01-21T09:05:52.728Z,1013.32
2023-01-21T09:06:52.718Z,1013.33
2023-01-21T09:07:52.694Z,1013.39
2023-01-21T09:08:53.713Z,1013.39
2023-01-21T09:09:52.699Z,1013.42
2023-01-21T09:10:52.703Z,1013.34
2023-01-21T09:11:53.662Z,1013.31
2023-01-21T09:12:52.663Z,1013.38
2023-01-21T09:13:52.647Z,1013.32
2023-01-21T09:14:52.620Z,1013.38
2023-01-21T09:15:52.632Z,1013.34
2023-01-21T09:16:52.615Z,1013.40
2023-01-21T09:17:52.647Z,1013.40
2023-01-21T09:18:53.604Z,1013.41
2023-01-21T09:19:54.634Z,1013.44
2023-01-21T09:20:53.565Z,1013.36
2023-01-21T09:21:52.601Z,1013.41
2023-01-21T09:22:52.560Z,1013.38
2023-01-21T09:23:52.539Z,1013.43
2023-01-21T09:24:52.524Z,1013.36
2023-01-21T09:25:53.101Z,1013.34
2023-01-21T09:26:52.494Z,1013.42
2023-01-21T09:27:52.543Z,1013.37
2023-01-21T09:28:52.501Z,1013.40
2023-01-21T09:29:52.456Z,1013.39
2023-01-21T09:30:52.542Z,1013.37
2023-01-21T09:31:52.548Z,1013.38
2023-01-21T09:32:52.437Z,1013.34
2023-01-21T09:33:52.431Z,1013.35
2023-01-21T09:34:53.404Z,1013.33
2023-01-21T09:35:53.417Z,1013.42
2023-01-21T09:36:53.408Z,1013.42
2023-01-21T09:37:52.415Z,1013.40
2023-01-21T09:38:52.368Z,1013.35
2023-01-21T09:39:53.374Z,1013.41
2023-01-21T09:40:52.328Z,1013.39
2023-01-21T09:41:52.395Z,1013.41
2023-01-21T09:42:52.335Z,1013.41
2023-01-21T09:43:52.300Z,1013.42
2023-01-21T09:44:53.313Z,1013.45
2023-01-21T09:45:53.326Z,1013.46
2023-01-21T09:46:52.323Z,1013.43
2023-01-21T09:47:52.254Z,1013.45
2023-01-21T09:48:52.255Z,1013.49
2023-01-21T09:49:52.277Z,1013.42
2023-01-21T09:50:53.250Z,1013.48
2023-01-21T09:51:52.764Z,1013.47
2023-01-21T09:52:52.263Z,1013.53
2023-01-21T09:53:52.213Z,1013.48
2023-01-21T09:54:52.214Z,1013.42
2023-01-21T09:55:52.185Z,1013.44
2023-01-21T09:56:52.180Z,1013.47
2023-01-21T09:57:52.171Z,1013.47
2023-01-21T09:58:52.175Z,1013.43
2023-01-21T09:59:52.146Z,1013.48
2023-01-21T10:00:52.286Z,1013.53
2023-01-21T10:01:53.134Z,1013.49
2023-01-21T10:02:52.142Z,1013.48
2023-01-21T10:03:52.104Z,1013.48
2023-01-21T10:04:53.152Z,1013.61
2023-01-21T10:05:52.090Z,1013.56
2023-01-21T10:06:53.077Z,1013.51
2023-01-21T10:07:52.068Z,1013.58
2023-01-21T10:08:52.092Z,1013.58
2023-01-21T10:09:52.048Z,1013.50
2023-01-21T10:10:52.022Z,1013.56
2023-01-21T10:11:52.043Z,1013.55
2023-01-21T10:12:52.004Z,1013.55
2023-01-21T10:13:51.994Z,1013.63
2023-01-21T10:14:51.994Z,1013.58
2023-01-21T10:15:51.953Z,1013.61
2023-01-21T10:16:52.016Z,1013.56
2023-01-21T10:17:51.951Z,1013.63
2023-01-21T10:18:51.964Z,1013.65
2023-01-21T10:19:51.968Z,1013.59
2023-01-21T10:20:51.952Z,1013.62
2023-01-21T10:21:51.936Z,1013.62
2023-01-21T10:22:52.906Z,1013.63
2023-01-21T10:23:51.872Z,1013.63
2023-01-21T10:24:51.920Z,1013.60
2023-01-21T10:25:51.884Z,1013.62
2023-01-21T10:26:51.852Z,1013.56
2023-01-21T10:27:51.872Z,1013.56
2023-01-21T10:28:51.838Z,1013.55
2023-01-21T10:29:51.804Z,1013.58
2023-01-21T10:30:51.916Z,1013.60
2023-01-21T10:31:51.976Z,1013.62
2023-01-21T10:32:51.810Z,1013.57
2023-01-21T10:33:51.765Z,1013.63
2023-01-21T10:34:51.779Z,1013.60
2023-01-21T10:35:51.784Z,1013.59
2023-01-21T10:36:51.729Z,1013.62
2023-01-21T10:37:52.755Z,1013.66
2023-01-21T10:38:52.718Z,1013.66
2023-01-21T10:39:51.708Z,1013.58
2023-01-21T10:40:51.715Z,1013.59
2023-01-21T10:41:51.701Z,1013.58
2023-01-21T10:42:51.693Z,1013.65
2023-01-21T10:43:51.705Z,1013.60
2023-01-21T10:44:51.660Z,1013.60
2023-01-21T10:45:51.678Z,1013.66
2023-01-21T10:46:51.623Z,1013.55
2023-01-21T10:47:51.638Z,1013.56
2023-01-21T10:48:52.628Z,1013.58
2023-01-21T10:49:51.609Z,1013.63
2023-01-21T10:50:51.635Z,1013.55
2023-01-21T10:51:51.566Z,1013.60
2023-01-21T10:52:52.568Z,1013.57
2023-01-21T10:53:51.595Z,1013.58
2023-01-21T10:54:52.575Z,1013.50
2023-01-21T10:55:51.546Z,1013.59
2023-01-21T10:56:51.528Z,1013.58
2023-01-21T10:57:52.534Z,1013.48
2023-01-21T10:58:51.490Z,1013.49
2023-01-21T10:59:51.531Z,1013.47
2023-01-21T11:00:51.470Z,1013.49
2023-01-21T11:01:51.479Z,1013.51
2023-01-21T11:02:52.496Z,1013.46
2023-01-21T11:03:51.489Z,1013.46
2023-01-21T11:04:51.432Z,1013.39
2023-01-21T11:05:51.447Z,1013.47
2023-01-21T11:06:51.439Z,1013.47
2023-01-21T11:07:52.394Z,1013.49
2023-01-21T11:08:52.496Z,1013.52
2023-01-21T11:09:51.421Z,1013.44
2023-01-21T11:10:51.373Z,1013.41
2023-01-21T11:11:51.382Z,1013.43
2023-01-21T11:12:51.358Z,1013.47
2023-01-21T11:13:51.357Z,1013.49
2023-01-21T11:14:51.373Z,1013.41
2023-01-21T11:15:52.360Z,1013.45
2023-01-21T11:16:51.297Z,1013.52
2023-01-21T11:17:51.328Z,1013.42
2023-01-21T11:18:51.304Z,1013.43
2023-01-21T11:19:51.281Z,1013.42
2023-01-21T11:20:51.252Z,1013.38
2023-01-21T11:21:51.242Z,1013.37
2023-01-21T11:22:51.242Z,1013.38
2023-01-21T11:23:51.265Z,1013.41
2023-01-21T11:24:51.225Z,1013.40
2023-01-21T11:25:51.226Z,1013.33
2023-01-21T11:26:52.226Z,1013.39
2023-01-21T11:27:51.174Z,1013.32
2023-01-21T11:28:51.266Z,1013.37
2023-01-21T11:29:51.179Z,1013.39
2023-01-21T11:30:51.800Z,1013.33
2023-01-21T11:31:52.269Z,1013.32
2023-01-21T11:32:51.132Z,1013.28
2023-01-21T11:33:51.163Z,1013.25
2023-01-21T11:34:51.141Z,1013.29
2023-01-21T11:35:51.137Z,1013.28
2023-01-21T11:36:51.111Z,1013.26
2023-01-21T11:37:51.086Z,1013.24
2023-01-21T11:38:52.054Z,1013.20
2023-01-21T11:39:51.066Z,1013.28
2023-01-21T11:40:51.087Z,1013.24
2023-01-21T11:41:52.040Z,1013.26
2023-01-21T11:42:51.034Z,1013.16
2023-01-21T11:43:51.036Z,1013.21
2023-01-21T11:44:52.014Z,1013.21
2023-01-21T11:45:51.061Z,1013.18
2023-01-21T11:46:50.995Z,1013.26
2023-01-21T11:47:50.979Z,1013.24
2023-01-21T11:48:50.962Z,1013.15
2023-01-21T11:49:50.969Z,1013.20
2023-01-21T11:50:50.991Z,1013.18
2023-01-21T11:51:50.912Z,1013.15
2023-01-21T11:52:50.928Z,1013.17
2023-01-21T11:53:50.893Z,1013.11
2023-01-21T11:54:50.912Z,1013.16
2023-01-21T11:55:50.917Z,1013.10
2023-01-21T11:56:50.875Z,1013.14
2023-01-21T11:57:50.876Z,1013.08
2023-01-21T11:58:50.872Z,1012.97
2023-01-21T11:59:50.860Z,1013.07
2023-01-21T12:00:50.860Z,1012.97
2023-01-21T12:01:50.847Z,1013.06
2023-01-21T12:02:50.868Z,1012.98
2023-01-21T12:03:50.872Z,1012.95
2023-01-21T12:04:50.789Z,1012.93
2023-01-21T12:05:51.783Z,1012.99